Time;durP1;ratioP1;P1;durP2;ratioP2;P2;SDS_P1;SDS_P2;PMS_P1;PMS_P2;Temp;Humidity;BMP_temperature;BMP_pressure;BME280_temperature;BME280_humidity;BME280_pressure;Samples;Min_cycle;Max_cycle;Signal;HPM_P1;HPM_P2
2022/10/11 00:01:14;;;;;;;18.80;3.42;;;10.90;99.90;;;;;;5056516;28;20626;-74
2022/10/11 00:03:40;;;;;;;18.65;2.58;;;11.00;99.90;;;;;;5062493;28;20040;-74
2022/10/11 00:06:07;;;;;;;16.83;2.70;;;11.10;99.90;;;;;;5084767;28;20066;-74
2022/10/11 00:08:34;;;;;;;14.88;2.20;;;11.00;99.90;;;;;;5055355;28;20151;-74
2022/10/11 00:11:02;;;;;;;16.23;2.10;;;11.10;99.90;;;;;;5063721;28;20047;-75
2022/10/11 00:13:29;;;;;;;14.07;2.13;;;11.10;99.90;;;;;;5067619;28;20056;-75
2022/10/11 00:15:55;;;;;;;13.95;2.38;;;11.20;99.90;;;;;;5062769;28;20135;-74
2022/10/11 00:18:21;;;;;;;10.90;2.28;;;11.10;99.90;;;;;;5055441;28;20575;-75
2022/10/11 00:20:46;;;;;;;22.50;3.50;;;11.10;99.90;;;;;;5085903;28;20044;-75
2022/10/11 00:23:13;;;;;;;20.02;2.65;;;11.20;99.90;;;;;;5061500;28;20050;-75
2022/10/11 00:25:39;;;;;;;16.88;3.00;;;11.20;99.90;;;;;;5086227;28;20052;-74
2022/10/11 00:28:05;;;;;;;12.05;2.30;;;11.10;99.90;;;;;;5057637;28;20048;-68
2022/10/11 00:30:31;;;;;;;18.45;3.17;;;11.00;99.90;;;;;;5071879;28;20036;-74
2022/10/11 00:32:57;;;;;;;16.38;2.00;;;10.90;99.90;;;;;;5054689;28;20162;-68
2022/10/11 00:35:23;;;;;;;12.45;2.60;;;10.90;99.90;;;;;;5055042;28;20048;-68
2022/10/11 00:37:49;;;;;;;18.42;2.70;;;10.90;99.90;;;;;;5068196;28;20102;-68
2022/10/11 00:40:16;;;;;;;16.75;2.78;;;10.80;99.90;;;;;;5072700;28;20040;-68
2022/10/11 00:42:42;;;;;;;10.30;2.00;;;10.70;99.90;;;;;;5071501;28;20044;-68
2022/10/11 00:45:26;;;;;;;18.55;2.90;;;10.80;99.90;;;;;;5061064;28;20365;-68
2022/10/11 00:48:13;;;;;;;9.48;2.13;;;10.70;99.90;;;;;;5084410;28;20037;-68
2022/10/11 00:50:39;;;;;;;18.67;2.70;;;10.80;99.90;;;;;;5071000;28;20036;-68
2022/10/11 00:53:08;;;;;;;16.77;2.92;;;10.50;99.90;;;;;;5071847;28;20138;-68
2022/10/11 00:55:35;;;;;;;;;;;10.60;99.90;;;;;;5026787;28;20049;-67
2022/10/11 00:58:01;;;;;;;14.57;2.40;;;10.50;99.90;;;;;;5087764;28;20027;-68
2022/10/11 01:00:27;;;;;;;13.13;2.63;;;10.60;99.90;;;;;;5054866;28;20429;-68
2022/10/11 01:02:53;;;;;;;17.55;2.35;;;10.60;99.90;;;;;;5049657;28;20048;-68
2022/10/11 01:05:22;;;;;;;15.52;2.33;;;10.70;99.90;;;;;;5053644;28;20461;-68
2022/10/11 01:07:48;;;;;;;21.42;3.25;;;10.70;99.90;;;;;;5053503;28;20087;-68
2022/10/11 01:10:13;;;;;;;16.13;2.50;;;10.50;99.90;;;;;;5089115;28;20040;-68
2022/10/11 01:12:58;;;;;;;18.00;3.10;;;10.60;99.90;;;;;;5045988;28;20131;-68
2022/10/11 01:15:49;;;;;;;20.50;2.78;;;10.50;99.90;;;;;;5089828;28;20048;-68
2022/10/11 01:18:45;;;;;;;13.93;2.47;;;10.60;99.90;;;;;;5083216;28;20052;-68
2022/10/11 01:21:10;;;;;;;17.45;2.70;;;10.70;99.90;;;;;;5071010;28;20052;-68
2022/10/11 01:24:10;;;;;;;18.95;2.47;;;10.50;99.90;;;;;;5068929;28;20064;-68
2022/10/11 01:27:19;;;;;;;16.00;2.22;;;10.60;99.90;;;;;;5082430;28;20135;-67
2022/10/11 01:30:16;;;;;;;16.63;3.03;;;10.50;99.90;;;;;;5088322;28;20047;-68
2022/10/11 01:32:49;;;;;;;17.52;2.83;;;10.40;99.90;;;;;;5070903;28;20776;-67
2022/10/11 01:35:31;;;;;;;14.43;2.70;;;10.40;99.90;;;;;;5088452;28;20189;-68
2022/10/11 01:38:30;;;;;;;21.00;4.10;;;10.40;99.90;;;;;;4997770;28;1571116;-68
2022/10/11 01:41:03;;;;;;;17.05;3.42;;;10.30;99.90;;;;;;5065300;28;20524;-72
2022/10/11 01:43:29;;;;;;;16.88;3.28;;;10.40;99.90;;;;;;5069192;28;20067;-72
2022/10/11 01:45:55;;;;;;;18.30;3.35;;;10.40;99.90;;;;;;5074139;28;20229;-72
2022/10/11 01:48:21;;;;;;;19.17;3.40;;;10.30;99.90;;;;;;5052961;28;20051;-68
2022/10/11 01:50:53;;;;;;;10.50;2.42;;;10.20;99.90;;;;;;5069980;28;20039;-68
2022/10/11 01:53:44;;;;;;;14.35;3.08;;;10.20;99.90;;;;;;5023080;28;20105;-67
2022/10/11 01:56:47;;;;;;;17.27;3.75;;;10.20;99.90;;;;;;5080295;28;20569;-67
2022/10/11 01:59:19;;;;;;;14.55;3.35;;;10.30;99.90;;;;;;5062201;28;20422;-68
2022/10/11 02:02:17;;;;;;;13.07;2.67;;;10.40;99.90;;;;;;5081188;28;20044;-68
2022/10/11 02:05:16;;;;;;;16.95;3.58;;;10.40;99.90;;;;;;5071817;28;20048;-68
2022/10/11 02:07:54;;;;;;;15.07;2.42;;;10.30;99.90;;;;;;5033919;28;20458;-67
2022/10/11 02:10:31;;;;;;;15.40;2.90;;;10.40;99.90;;;;;;5055425;28;20071;-68
2022/10/11 02:13:05;;;;;;;16.42;3.10;;;10.40;99.90;;;;;;5035776;28;20075;-68
2022/10/11 02:15:31;;;;;;;13.57;2.63;;;10.30;99.90;;;;;;5084206;28;20043;-68
2022/10/11 02:17:58;;;;;;;13.55;2.75;;;10.20;99.90;;;;;;5070022;28;20601;-68
2022/10/11 02:20:24;;;;;;;15.40;2.90;;;10.20;99.90;;;;;;5046188;28;20040;-68
2022/10/11 02:22:54;;;;;;;17.48;3.53;;;10.10;99.90;;;;;;5054561;28;20055;-67
2022/10/11 02:25:23;;;;;;;16.88;2.90;;;10.10;99.90;;;;;;5039712;28;20045;-67
2022/10/11 02:27:49;;;;;;;14.35;2.92;;;10.20;99.90;;;;;;5057250;28;20042;-67
2022/10/11 02:30:15;;;;;;;15.10;3.33;;;10.20;99.90;;;;;;5041806;28;20041;-66
2022/10/11 02:32:42;;;;;;;13.23;2.67;;;10.10;99.90;;;;;;5049039;28;20045;-67
2022/10/11 02:35:09;;;;;;;15.88;2.78;;;10.00;99.90;;;;;;5060702;28;20121;-67
2022/10/11 02:37:51;;;;;;;15.48;2.80;;;10.10;99.90;;;;;;5054728;28;20117;-67
2022/10/11 02:40:25;;;;;;;20.42;3.17;;;10.00;99.90;;;;;;5089104;28;20131;-67
2022/10/11 02:42:58;;;;;;;15.15;2.95;;;10.00;99.90;;;;;;5075901;28;20167;-67
2022/10/11 02:45:45;;;;;;;17.05;2.78;;;10.00;99.90;;;;;;5061447;28;20509;-67
2022/10/11 02:48:11;;;;;;;14.32;2.70;;;10.00;99.90;;;;;;5054132;28;20079;-67
2022/10/11 02:50:38;;;;;;;17.77;3.03;;;10.00;99.90;;;;;;5043633;28;20044;-66
2022/10/11 02:53:07;;;;;;;15.65;2.45;;;9.90;99.90;;;;;;5033743;28;20063;-66
2022/10/11 02:55:32;;;;;;;13.77;3.00;;;10.00;99.90;;;;;;5067631;28;20045;-66
2022/10/11 02:57:59;;;;;;;12.32;2.85;;;9.80;99.90;;;;;;5051433;28;20055;-67
2022/10/11 03:00:25;;;;;;;18.35;2.75;;;9.90;99.90;;;;;;5051399;28;20046;-67
2022/10/11 03:02:51;;;;;;;13.30;2.20;;;9.80;99.90;;;;;;5071286;28;20462;-66
2022/10/11 03:05:21;;;;;;;22.58;3.20;;;9.90;99.90;;;;;;5048822;28;20051;-66
2022/10/11 03:07:47;;;;;;;18.98;2.65;;;9.90;99.90;;;;;;5060862;28;20040;-67
2022/10/11 03:10:12;;;;;;;14.43;2.88;;;10.00;99.90;;;;;;5049653;28;20056;-67
2022/10/11 03:12:38;;;;;;;19.05;3.10;;;9.90;99.90;;;;;;5052499;28;20044;-66
2022/10/11 03:15:04;;;;;;;16.38;3.25;;;9.90;99.90;;;;;;5039112;28;20048;-67
2022/10/11 03:17:30;;;;;;;14.52;2.85;;;9.90;99.90;;;;;;5070705;28;20055;-66
2022/10/11 03:19:57;;;;;;;18.02;3.08;;;9.80;99.90;;;;;;5034260;28;20044;-67
2022/10/11 03:22:22;;;;;;;14.48;2.88;;;9.90;99.90;;;;;;5067190;28;20052;-67
2022/10/11 03:24:48;;;;;;;15.32;3.17;;;9.80;99.90;;;;;;5071554;28;20532;-67
2022/10/11 03:27:14;;;;;;;15.07;3.10;;;9.80;99.90;;;;;;5051064;28;20066;-69
2022/10/11 03:29:40;;;;;;;13.30;2.63;;;9.90;99.90;;;;;;5051307;28;20119;-67
2022/10/11 03:32:05;;;;;;;11.82;3.05;;;9.90;99.90;;;;;;5038715;28;20048;-66
2022/10/11 03:34:31;;;;;;;14.88;2.53;;;10.00;99.90;;;;;;5085516;28;20598;-66
2022/10/11 03:36:57;;;;;;;21.27;3.28;;;9.90;99.90;;;;;;5041182;28;20739;-65
2022/10/11 03:39:23;;;;;;;16.45;2.83;;;10.00;99.90;;;;;;5070273;28;20048;-67
2022/10/11 03:41:48;;;;;;;13.13;2.58;;;10.00;99.90;;;;;;5058545;28;20090;-66
2022/10/11 03:44:15;;;;;;;13.27;2.55;;;9.90;99.90;;;;;;5068191;28;20127;-67
2022/10/11 03:46:41;;;;;;;15.93;3.25;;;9.90;99.90;;;;;;5065350;28;20056;-66
2022/10/11 03:49:07;;;;;;;12.95;3.03;;;9.80;99.90;;;;;;5086722;28;20048;-70
2022/10/11 03:51:33;;;;;;;16.35;3.22;;;9.90;99.90;;;;;;5037610;28;20048;-66
2022/10/11 03:53:58;;;;;;;15.82;4.03;;;9.90;99.90;;;;;;5099735;28;20059;-66
2022/10/11 03:56:24;;;;;;;13.32;3.00;;;9.90;99.90;;;;;;5083485;28;20048;-67
2022/10/11 03:58:51;;;;;;;13.32;3.38;;;9.80;99.90;;;;;;5067964;28;20044;-66
2022/10/11 04:01:17;;;;;;;15.27;3.80;;;9.80;99.90;;;;;;5078191;28;20048;-66
2022/10/11 04:03:43;;;;;;;16.40;3.85;;;9.90;99.90;;;;;;5086726;28;20048;-66
2022/10/11 04:06:08;;;;;;;17.83;4.25;;;9.90;99.90;;;;;;5067622;28;20048;-66
2022/10/11 04:08:34;;;;;;;16.48;3.05;;;9.80;99.90;;;;;;5069015;28;20072;-65
2022/10/11 04:11:00;;;;;;;11.80;2.97;;;9.70;99.90;;;;;;5087228;28;20377;-66
2022/10/11 04:13:26;;;;;;;10.90;2.90;;;9.60;99.90;;;;;;5087982;28;20048;-66
2022/10/11 04:15:51;;;;;;;13.98;3.28;;;9.70;99.90;;;;;;5050864;28;20457;-65
2022/10/11 04:18:17;;;;;;;12.40;3.00;;;9.60;99.90;;;;;;5060764;28;20144;-66
2022/10/11 04:20:43;;;;;;;15.20;3.08;;;9.60;99.90;;;;;;5047189;28;20047;-67
2022/10/11 04:23:08;;;;;;;16.88;3.50;;;9.50;99.90;;;;;;5086949;28;20074;-66
2022/10/11 04:25:37;;;;;;;15.27;3.40;;;9.50;99.90;;;;;;5049515;28;20041;-66
2022/10/11 04:28:03;;;;;;;;;;;9.50;99.90;;;;;;5083907;28;20058;-66
2022/10/11 04:30:30;;;;;;;15.27;3.35;;;9.50;99.90;;;;;;5061115;28;19924;-66
2022/10/11 04:32:56;;;;;;;11.77;2.80;;;9.50;99.90;;;;;;5062083;28;20101;-66
2022/10/11 04:35:22;;;;;;;14.00;3.30;;;9.50;99.90;;;;;;5088960;28;20427;-67
2022/10/11 04:37:47;;;;;;;16.67;3.33;;;9.50;99.90;;;;;;5090495;28;20091;-66
2022/10/11 04:40:13;;;;;;;14.02;3.05;;;9.40;99.90;;;;;;5074578;28;20143;-66
2022/10/11 04:42:39;;;;;;;12.15;2.70;;;9.50;99.90;;;;;;5066098;28;20101;-66
2022/10/11 04:45:05;;;;;;;11.50;2.60;;;9.50;99.90;;;;;;5085804;28;20046;-67
2022/10/11 04:47:31;;;;;;;13.00;3.58;;;9.50;99.90;;;;;;5067837;28;20055;-66
2022/10/11 04:49:57;;;;;;;10.73;2.53;;;9.50;99.90;;;;;;5032573;28;20539;-67
2022/10/11 04:52:22;;;;;;;13.50;2.60;;;9.50;99.90;;;;;;5078473;28;20567;-68
2022/10/11 04:54:48;;;;;;;16.42;3.13;;;9.50;99.90;;;;;;5089032;28;20044;-67
2022/10/11 04:57:14;;;;;;;14.43;2.90;;;9.50;99.90;;;;;;5072344;28;20075;-68
2022/10/11 04:59:41;;;;;;;12.63;2.75;;;9.50;99.90;;;;;;5056150;28;20127;-66
2022/10/11 05:02:07;;;;;;;12.70;3.25;;;9.50;99.90;;;;;;5070525;28;20070;-67
2022/10/11 05:04:32;;;;;;;21.52;3.03;;;9.60;99.90;;;;;;5087125;28;20044;-66
2022/10/11 05:06:58;;;;;;;20.45;3.58;;;9.60;99.90;;;;;;5063538;28;20056;-66
2022/10/11 05:09:24;;;;;;;14.65;3.10;;;9.50;99.90;;;;;;5052771;28;20044;-67
2022/10/11 05:11:50;;;;;;;16.77;3.53;;;9.50;99.90;;;;;;5089141;28;20036;-69
2022/10/11 05:14:15;;;;;;;16.95;3.55;;;9.60;99.90;;;;;;5086451;28;20123;-67
2022/10/11 05:16:41;;;;;;;24.00;3.80;;;9.50;99.90;;;;;;5053469;28;20500;-66
2022/10/11 05:19:07;;;;;;;23.50;3.95;;;9.50;99.90;;;;;;5051394;28;20106;-67
2022/10/11 05:21:33;;;;;;;13.93;4.93;;;9.50;99.90;;;;;;5081120;28;20110;-67
2022/10/11 05:23:59;;;;;;;22.88;5.10;;;9.40;99.90;;;;;;5054685;28;20058;-67
2022/10/11 05:26:26;;;;;;;22.75;4.20;;;9.40;99.90;;;;;;5044134;28;20102;-66
2022/10/11 05:28:52;;;;;;;13.60;4.23;;;9.40;99.90;;;;;;5067888;28;20448;-66
2022/10/11 05:31:18;;;;;;;12.52;3.70;;;9.50;99.90;;;;;;5068864;28;20048;-66
2022/10/11 05:33:44;;;;;;;14.95;3.45;;;9.50;99.90;;;;;;5052348;28;20048;-67
2022/10/11 05:36:11;;;;;;;21.55;5.28;;;9.50;99.90;;;;;;5077558;28;20086;-69
2022/10/11 05:38:40;;;;;;;17.25;4.32;;;9.50;99.90;;;;;;5054346;28;20044;-70
2022/10/11 05:41:07;;;;;;;21.67;5.47;;;9.40;99.90;;;;;;5067300;28;20536;-69
2022/10/11 05:43:33;;;;;;;15.07;3.13;;;9.50;99.90;;;;;;5034215;28;20469;-67
2022/10/11 05:45:59;;;;;;;19.38;3.70;;;9.60;99.90;;;;;;5081273;28;20052;-66
2022/10/11 05:48:25;;;;;;;13.13;2.85;;;9.60;99.90;;;;;;5081232;28;20047;-66
2022/10/11 05:50:51;;;;;;;12.70;2.63;;;9.60;99.90;;;;;;5065542;28;20040;-70
2022/10/11 05:53:17;;;;;;;21.42;3.80;;;9.60;99.90;;;;;;5089999;28;20044;-67
2022/10/11 05:55:43;;;;;;;17.63;3.58;;;9.60;99.90;;;;;;5065100;28;20044;-70
2022/10/11 05:58:13;;;;;;;21.42;3.50;;;9.70;99.90;;;;;;5053131;28;20063;-67
2022/10/11 06:00:39;;;;;;;17.73;3.55;;;9.80;99.90;;;;;;5053967;28;20139;-67
2022/10/11 06:03:06;;;;;;;22.80;3.70;;;9.80;99.90;;;;;;5051548;28;20036;-67
2022/10/11 06:05:33;;;;;;;19.85;3.20;;;9.90;99.90;;;;;;5044309;28;20048;-67
2022/10/11 06:07:59;;;;;;;17.30;3.47;;;9.80;99.90;;;;;;5068652;28;20216;-69
2022/10/11 06:10:24;;;;;;;22.05;3.17;;;9.70;99.90;;;;;;5066307;28;20040;-69
2022/10/11 06:12:50;;;;;;;16.38;2.80;;;9.60;99.90;;;;;;5060229;28;20045;-66
2022/10/11 06:15:16;;;;;;;16.45;2.83;;;9.60;99.90;;;;;;5041833;28;20040;-66
2022/10/11 06:17:42;;;;;;;18.48;3.33;;;9.60;99.90;;;;;;5067828;28;20048;-69
2022/10/11 06:20:08;;;;;;;18.55;3.03;;;9.60;99.90;;;;;;5037244;28;20076;-66
2022/10/11 06:22:36;;;;;;;17.15;3.13;;;9.60;99.90;;;;;;5067532;28;20056;-66
2022/10/11 06:25:01;;;;;;;21.70;3.70;;;9.70;99.90;;;;;;5064487;28;20081;-67
2022/10/11 06:27:28;;;;;;;16.60;3.10;;;9.70;99.90;;;;;;5070829;28;20047;-66
2022/10/11 06:29:53;;;;;;;11.15;2.70;;;9.70;99.90;;;;;;5047916;28;20041;-66
2022/10/11 06:32:19;;;;;;;18.20;2.97;;;9.80;99.90;;;;;;5035540;28;20453;-66
2022/10/11 06:34:45;;;;;;;15.65;2.97;;;9.80;99.90;;;;;;5071082;28;20075;-65
2022/10/11 06:37:11;;;;;;;13.02;3.35;;;9.90;99.90;;;;;;5035460;28;20060;-66
2022/10/11 06:39:37;;;;;;;23.40;3.80;;;9.90;99.90;;;;;;5064670;28;20048;-66
2022/10/11 06:42:03;;;;;;;15.65;3.17;;;9.90;99.90;;;;;;5080455;28;20130;-65
2022/10/11 06:44:29;;;;;;;14.75;3.25;;;9.90;99.90;;;;;;5065229;28;20101;-68
2022/10/11 06:46:54;;;;;;;19.95;3.75;;;9.90;99.90;;;;;;5051525;28;20036;-68
2022/10/11 06:49:20;;;;;;;14.43;2.88;;;9.90;99.90;;;;;;5050538;28;20041;-68
2022/10/11 06:51:46;;;;;;;15.52;3.13;;;9.90;99.90;;;;;;5069612;28;20035;-68
2022/10/11 06:54:12;;;;;;;15.32;3.08;;;9.90;99.90;;;;;;5067132;28;20048;-69
2022/10/11 06:56:38;;;;;;;20.30;3.88;;;9.90;99.90;;;;;;5049487;28;20049;-68
2022/10/11 06:59:03;;;;;;;11.70;2.80;;;10.00;99.90;;;;;;5045275;28;20481;-68
2022/10/11 07:01:32;;;;;;;19.15;4.00;;;10.00;99.90;;;;;;5069263;28;20418;-68
2022/10/11 07:04:00;;;;;;;22.98;4.38;;;10.00;99.90;;;;;;5076723;28;20051;-67
2022/10/11 07:06:26;;;;;;;22.50;3.20;;;9.90;99.90;;;;;;5049420;28;20045;-67
2022/10/11 07:08:52;;;;;;;19.88;3.47;;;10.00;99.90;;;;;;5050694;28;20060;-67
2022/10/11 07:11:23;;;;;;;17.15;3.25;;;10.10;99.90;;;;;;5086750;28;20078;-66
2022/10/11 07:13:50;;;;;;;18.58;3.20;;;10.00;99.90;;;;;;5086231;28;20071;-67
2022/10/11 07:16:16;;;;;;;19.83;3.85;;;10.10;99.90;;;;;;5050793;28;20079;-66
2022/10/11 07:18:42;;;;;;;15.45;3.70;;;10.00;99.90;;;;;;5067023;28;20148;-66
2022/10/11 07:21:10;;;;;;;23.17;3.50;;;10.00;99.90;;;;;;5066013;28;20517;-65
2022/10/11 07:23:36;;;;;;;17.48;3.17;;;10.00;99.90;;;;;;5042925;28;20106;-66
2022/10/11 07:26:02;;;;;;;22.17;3.60;;;10.10;99.90;;;;;;5083173;28;20075;-67
2022/10/11 07:28:29;;;;;;;19.42;3.78;;;10.10;99.90;;;;;;5066194;28;20036;-67
2022/10/11 07:30:56;;;;;;;18.67;5.55;;;10.10;99.90;;;;;;5041175;28;20037;-67
2022/10/11 07:33:22;;;;;;;18.25;3.65;;;10.20;99.90;;;;;;5065386;28;20075;-70
2022/10/11 07:35:48;;;;;;;18.30;3.83;;;10.20;99.90;;;;;;5060828;28;20094;-70
2022/10/11 07:38:14;;;;;;;16.35;3.30;;;10.30;99.90;;;;;;5064118;28;20090;-66
2022/10/11 07:40:45;;;;;;;23.92;4.03;;;10.40;99.90;;;;;;5083029;28;20461;-70
2022/10/11 07:43:11;;;;;;;17.85;2.90;;;10.40;99.90;;;;;;5069892;28;20048;-65
2022/10/11 07:45:38;;;;;;;15.70;3.42;;;10.40;99.90;;;;;;5082394;28;20036;-66
2022/10/11 07:48:04;;;;;;;13.27;2.97;;;10.40;99.90;;;;;;5068255;28;20044;-67
2022/10/11 07:50:30;;;;;;;16.40;3.28;;;10.50;99.90;;;;;;5050569;28;20483;-66
2022/10/11 07:52:56;;;;;;;22.17;3.97;;;10.60;99.90;;;;;;5062348;28;20461;-66
2022/10/11 07:55:21;;;;;;;14.32;3.42;;;10.50;99.90;;;;;;5077269;28;20040;-68
2022/10/11 07:57:47;;;;;;;17.75;3.80;;;10.60;99.90;;;;;;5066521;28;20537;-67
2022/10/11 08:00:13;;;;;;;14.20;3.33;;;10.50;99.90;;;;;;5083794;28;20052;-67
2022/10/11 08:02:39;;;;;;;15.88;3.55;;;10.50;99.90;;;;;;5043539;28;20076;-67
2022/10/11 08:05:05;;;;;;;16.80;3.38;;;10.60;99.90;;;;;;5054103;28;20124;-66
2022/10/11 08:07:31;;;;;;;16.73;3.40;;;10.60;99.90;;;;;;5068881;28;20123;-65
2022/10/11 08:09:58;;;;;;;18.90;3.63;;;10.60;99.90;;;;;;5057711;28;20055;-65
2022/10/11 08:12:23;;;;;;;11.82;2.92;;;10.70;99.90;;;;;;5053202;28;20494;-66
2022/10/11 08:14:49;;;;;;;17.52;3.35;;;10.70;99.90;;;;;;5056963;28;20109;-66
2022/10/11 08:17:15;;;;;;;14.70;4.13;;;10.70;99.90;;;;;;5070401;28;20040;-66
2022/10/11 08:19:41;;;;;;;15.85;3.80;;;10.80;99.90;;;;;;5069174;28;20496;-66
2022/10/11 08:22:07;;;;;;;21.80;5.68;;;10.80;99.90;;;;;;5072605;28;20160;-66
2022/10/11 08:24:33;;;;;;;15.90;3.60;;;10.80;99.90;;;;;;5081631;28;20048;-66
2022/10/11 08:26:59;;;;;;;18.15;3.22;;;10.90;99.90;;;;;;5060623;28;20053;-66
2022/10/11 08:29:25;;;;;;;15.98;3.50;;;11.00;99.90;;;;;;5054320;28;20484;-66
2022/10/11 08:31:52;;;;;;;18.92;3.88;;;11.10;99.90;;;;;;5080173;28;20124;-66
2022/10/11 08:34:17;;;;;;;17.35;3.42;;;11.00;99.90;;;;;;5098566;28;20540;-65
2022/10/11 08:36:43;;;;;;;20.38;3.67;;;11.10;99.90;;;;;;5072381;28;20141;-65
2022/10/11 08:39:09;;;;;;;16.58;2.72;;;11.10;99.90;;;;;;5087044;28;20055;-66
2022/10/11 08:41:42;;;;;;;15.73;3.75;;;11.20;99.90;;;;;;5086706;28;20082;-67
2022/10/11 08:44:22;;;;;;;18.58;3.53;;;11.30;99.90;;;;;;5090459;28;20113;-67
2022/10/11 08:46:51;;;;;;;16.85;4.32;;;11.30;99.90;;;;;;5065791;28;20044;-68
2022/10/11 08:49:19;;;;;;;24.58;3.83;;;11.30;99.90;;;;;;5053301;28;20049;-67
2022/10/11 08:51:47;;;;;;;23.33;3.92;;;11.30;99.90;;;;;;5068375;28;20043;-67
2022/10/11 08:54:43;;;;;;;20.13;3.60;;;11.50;99.90;;;;;;5053769;28;20050;-67
2022/10/11 08:57:13;;;;;;;20.77;3.78;;;11.50;99.90;;;;;;5087878;28;20048;-68
2022/10/11 08:59:43;;;;;;;17.90;3.80;;;11.60;99.90;;;;;;5056404;28;20075;-67
2022/10/11 09:02:12;;;;;;;13.52;3.15;;;11.60;99.90;;;;;;5056052;28;20148;-67
2022/10/11 09:04:38;;;;;;;11.98;3.10;;;11.70;99.90;;;;;;5070417;28;20122;-67
2022/10/11 09:07:15;;;;;;;14.45;2.85;;;11.70;99.90;;;;;;5039688;28;20139;-67
2022/10/11 09:10:18;;;;;;;17.40;3.20;;;11.80;99.90;;;;;;5079951;28;20044;-68
2022/10/11 09:13:30;;;;;;;16.85;3.47;;;11.80;99.90;;;;;;5086627;28;20043;-66
2022/10/11 09:16:18;;;;;;;15.02;3.17;;;11.80;99.90;;;;;;5048410;28;20041;-67
2022/10/11 09:18:53;;;;;;;16.48;3.65;;;11.80;99.90;;;;;;5086788;28;20036;-68
2022/10/11 09:21:24;;;;;;;16.60;3.58;;;11.90;99.90;;;;;;5086602;28;20124;-67
2022/10/11 09:24:03;;;;;;;18.92;3.80;;;12.00;99.90;;;;;;5083070;28;20040;-66
2022/10/11 09:26:56;;;;;;;11.95;3.40;;;12.20;99.90;;;;;;5087312;28;20405;-68
2022/10/11 09:29:46;;;;;;;14.10;3.28;;;12.30;99.60;;;;;;5071855;28;20392;-67
2022/10/11 09:32:15;;;;;;;15.18;3.47;;;12.40;99.70;;;;;;5074306;28;20101;-68
2022/10/11 09:34:41;;;;;;;15.68;2.92;;;12.60;99.80;;;;;;5073768;28;20044;-68
2022/10/11 09:37:26;;;;;;;15.88;3.28;;;12.50;99.30;;;;;;5080521;28;20049;-68
2022/10/11 09:40:00;;;;;;;16.42;3.10;;;12.60;98.80;;;;;;5049391;28;20483;-68
2022/10/11 09:42:27;;;;;;;15.65;3.28;;;12.80;98.80;;;;;;5036377;28;20447;-68
2022/10/11 09:44:56;;;;;;;16.40;4.50;;;12.90;98.50;;;;;;5069181;28;20465;-68
2022/10/11 09:47:26;;;;;;;75.63;17.65;;;13.00;98.70;;;;;;5039750;28;20066;-68
2022/10/11 09:49:59;;;;;;;134.90;30.42;;;13.00;98.30;;;;;;5066671;28;20128;-67
2022/10/11 09:52:25;;;;;;;86.88;27.13;;;13.10;98.00;;;;;;5083871;28;20136;-68
2022/10/11 09:54:54;;;;;;;27.83;8.90;;;13.10;98.00;;;;;;5066609;28;20143;-68
2022/10/11 09:57:21;;;;;;;24.17;5.85;;;13.30;97.40;;;;;;5071790;28;20424;-68
2022/10/11 10:00:15;;;;;;;15.15;4.15;;;13.40;97.60;;;;;;5085615;28;20044;-67
2022/10/11 10:02:48;;;;;;;13.70;2.90;;;13.50;97.40;;;;;;5096614;28;20116;-68
2022/10/11 10:05:16;;;;;;;20.90;4.60;;;13.70;96.90;;;;;;5045711;28;20044;-68
2022/10/11 10:08:01;;;;;;;;;;;13.70;96.50;;;;;;5049444;28;20082;-67
2022/10/11 10:10:28;;;;;;;14.88;2.67;;;13.90;96.30;;;;;;5068438;28;19944;-67
2022/10/11 10:12:59;;;;;;;12.80;2.58;;;13.90;95.10;;;;;;5059141;28;20360;-67
2022/10/11 10:15:35;;;;;;;14.73;2.80;;;14.00;95.20;;;;;;5068792;28;20097;-66
2022/10/11 10:18:01;;;;;;;14.65;3.00;;;14.30;95.40;;;;;;5069270;28;20422;-67
2022/10/11 10:20:32;;;;;;;10.10;2.50;;;14.40;94.80;;;;;;5058925;28;20078;-67
2022/10/11 10:23:07;;;;;;;10.90;2.42;;;14.40;93.70;;;;;;5049448;28;20489;-66
2022/10/11 10:25:36;;;;;;;13.70;2.92;;;14.40;93.20;;;;;;5067480;28;20425;-67
2022/10/11 10:28:18;;;;;;;15.02;2.60;;;14.60;93.00;;;;;;5067386;28;20079;-68
2022/10/11 10:30:56;;;;;;;13.50;2.70;;;14.40;93.60;;;;;;5060344;28;20036;-71
2022/10/11 10:33:29;;;;;;;14.73;2.90;;;14.90;94.30;;;;;;5025549;28;20051;-70
2022/10/11 10:36:05;;;;;;;9.68;2.60;;;15.30;93.30;;;;;;5051904;28;20114;-71
2022/10/11 10:38:39;;;;;;;12.15;2.70;;;16.00;91.90;;;;;;5058600;28;20044;-70
2022/10/11 10:41:13;;;;;;;13.57;2.58;;;16.00;91.30;;;;;;5053103;28;20044;-70
2022/10/11 10:43:40;;;;;;;14.90;2.95;;;16.40;92.40;;;;;;5051600;28;20496;-70
2022/10/11 10:46:34;;;;;;;9.77;2.97;;;16.80;88.00;;;;;;5050255;28;20370;-67
2022/10/11 10:49:24;;;;;;;13.10;3.30;;;16.90;91.00;;;;;;5078533;28;20207;-68
2022/10/11 10:52:06;;;;;;;11.05;2.13;;;18.00;87.40;;;;;;5066416;28;20052;-68
2022/10/11 10:54:43;;;;;;;14.40;3.00;;;18.40;81.80;;;;;;5078145;28;20044;-69
2022/10/11 10:57:34;;;;;;;13.90;3.50;;;18.90;78.40;;;;;;5063322;28;20076;-69
2022/10/11 11:00:19;;;;;;;6.97;2.03;;;19.10;72.30;;;;;;5057510;28;20036;-69
2022/10/11 11:03:05;;;;;;;11.00;2.50;;;19.30;74.50;;;;;;5068264;28;20058;-69
2022/10/11 11:05:40;;;;;;;10.65;2.13;;;18.00;71.30;;;;;;5085653;28;20125;-69
2022/10/11 11:08:14;;;;;;;11.50;2.75;;;17.80;76.00;;;;;;5084135;28;20707;-69
2022/10/11 11:11:11;;;;;;;11.70;2.33;;;17.40;75.30;;;;;;5051872;28;20048;-69
2022/10/11 11:13:46;;;;;;;9.53;2.73;;;18.20;76.60;;;;;;5056206;28;20054;-68
2022/10/11 11:16:38;;;;;;;10.43;2.17;;;18.20;75.80;;;;;;5088340;28;20520;-67
2022/10/11 11:19:22;;;;;;;13.50;3.08;;;18.00;75.80;;;;;;5083303;28;20099;-68
2022/10/11 11:22:26;;;;;;;9.93;2.35;;;17.80;74.20;;;;;;5069245;28;20376;-68
2022/10/11 11:25:19;;;;;;;10.18;2.22;;;17.30;75.30;;;;;;5050962;28;20044;-69
2022/10/11 11:27:56;;;;;;;8.25;1.98;;;18.10;76.50;;;;;;5079872;28;20041;-69
2022/10/11 11:30:30;;;;;;;12.57;2.58;;;18.80;71.50;;;;;;5082492;28;20046;-69
2022/10/11 11:33:04;;;;;;;12.65;2.58;;;18.20;75.30;;;;;;5034946;28;20045;-68
2022/10/11 11:35:52;;;;;;;11.82;2.40;;;17.80;76.10;;;;;;5084176;28;20047;-68
2022/10/11 11:38:27;;;;;;;8.50;2.13;;;16.60;77.00;;;;;;5021405;28;20489;-68
2022/10/11 11:41:03;;;;;;;9.93;2.20;;;16.40;80.20;;;;;;5045819;28;20045;-69
2022/10/11 11:43:37;;;;;;;12.30;2.72;;;16.90;77.80;;;;;;5024692;28;20484;-68
2022/10/11 11:46:12;;;;;;;12.60;2.30;;;17.00;78.00;;;;;;5029852;28;20104;-69
2022/10/11 11:48:37;;;;;;;11.00;1.90;;;17.30;77.40;;;;;;4991842;28;20037;-69
2022/10/11 11:51:08;;;;;;;9.25;2.15;;;18.00;76.20;;;;;;4997791;28;20045;-68
2022/10/11 11:53:49;;;;;;;11.65;2.90;;;18.50;76.80;;;;;;5016661;28;20037;-68
2022/10/11 11:56:25;;;;;;;11.73;2.67;;;18.50;73.50;;;;;;5032122;28;20395;-68
2022/10/11 11:59:09;;;;;;;10.95;2.08;;;18.30;74.10;;;;;;5039774;28;20044;-68
2022/10/11 12:02:23;;;;;;;11.23;2.08;;;18.30;75.00;;;;;;5049467;28;20614;-68
2022/10/11 12:04:49;;;;;;;10.40;2.40;;;19.00;72.40;;;;;;5041971;28;20371;-68
2022/10/11 12:07:17;;;;;;;12.80;2.40;;;18.00;75.80;;;;;;5024837;28;20095;-68
2022/10/11 12:09:44;;;;;;;10.20;2.25;;;17.90;72.90;;;;;;5030772;28;20083;-68
2022/10/11 12:12:27;;;;;;;13.80;2.20;;;18.10;74.50;;;;;;5027120;28;20048;-69
2022/10/11 12:15:08;;;;;;;8.18;2.17;;;18.40;74.80;;;;;;5013972;28;20045;-69
2022/10/11 12:17:53;;;;;;;10.15;1.85;;;18.70;70.90;;;;;;5039052;28;20041;-69
2022/10/11 12:20:30;;;;;;;9.93;2.08;;;19.20;69.70;;;;;;5050912;28;20095;-69
2022/10/11 12:22:58;;;;;;;9.52;2.08;;;19.20;70.30;;;;;;5014205;28;20509;-68
2022/10/11 12:25:27;;;;;;;9.45;2.22;;;19.40;69.70;;;;;;5047068;28;20045;-69
2022/10/11 12:27:57;;;;;;;8.82;1.83;;;19.40;68.40;;;;;;5040896;28;20048;-69
2022/10/11 12:30:41;;;;;;;8.82;1.85;;;19.40;69.10;;;;;;5030921;28;20079;-69
2022/10/11 12:33:24;;;;;;;11.82;2.00;;;18.50;68.30;;;;;;5030432;28;20045;-68
2022/10/11 12:35:56;;;;;;;11.85;2.72;;;17.90;69.70;;;;;;5032390;28;20045;-68
2022/10/11 12:38:39;;;;;;;11.25;2.28;;;18.10;70.80;;;;;;5025307;28;20470;-68
2022/10/11 12:41:15;;;;;;;11.23;2.22;;;17.50;72.50;;;;;;5025443;28;20057;-68
2022/10/11 12:43:47;;;;;;;10.10;1.85;;;17.60;73.50;;;;;;5050091;28;20057;-68
2022/10/11 12:46:32;;;;;;;11.43;2.70;;;18.20;71.70;;;;;;5023249;28;20049;-68
2022/10/11 12:49:35;;;;;;;9.35;2.55;;;17.00;73.10;;;;;;5008080;28;20103;-68
2022/10/11 12:52:15;;;;;;;9.35;2.00;;;16.30;75.80;;;;;;5028489;28;20041;-69
2022/10/11 12:55:09;;;;;;;18.10;3.05;;;16.60;76.80;;;;;;5048577;28;20045;-68
2022/10/11 12:58:00;;;;;;;11.10;2.25;;;16.60;75.50;;;;;;5036848;28;20041;-68
2022/10/11 13:00:30;;;;;;;10.00;2.20;;;16.80;75.00;;;;;;5010266;28;20438;-67
2022/10/11 13:03:04;;;;;;;8.32;2.20;;;16.10;78.10;;;;;;5048146;28;20053;-67